Dixie, Kentucky
Current Conditions -  °F | °C
As of 3:15 AM on Sunday 26 Oct 2014 (Local Time) from KI69 Reporting Station
Clear Clear  
Wind Chill: 59°   Ceiling: Unl
Heat Index: 59°   Visibility: 10mi
Dew Point: 37°   Wind: 6mph
Humidity: 45%   Direction: 310°NW
Pressure: 29.95"   Gusts: NA
Location:  39.0279°N, 84.5635°W
Report Text: KI69 260715Z AUTO 31005KT 10SM CLR 15/03 A2995 RMK AO1
Loading
Personal Weather Stations






























Interactive Weather Map
Tropical Storm Tracking
New forecast layout! Learn more

10-Day Weather Forecast

Advertisements
Track Severe Weather on mobile